Wetterdaten: Woche 02.06.14 - 08.06.14 (KW23)
Datum Zeit Temperatur Luftfeuchte Luftdruck Niederschlag Windrichtung Sonnenschein Solar Wind
02.06.2014 00:00 12,7 C 76 % 1016,3 hPa 0,0 l/m N 0,00 h 0 W/m 0,8 km/h (0 Bft)
02.06.2014 01:00 12,2 C 80 % 1016,1 hPa 0,0 l/m N 0,00 h 0 W/m 2,7 km/h (1 Bft)
02.06.2014 02:00 11,9 C 80 % 1016,1 hPa 0,0 l/m N 0,00 h 0 W/m 1,2 km/h (1 Bft)
02.06.2014 03:00 11,2 C 83 % 1016,0 hPa 0,0 l/m N 0,00 h 0 W/m 1,9 km/h (1 Bft)
02.06.2014 04:00 10,7 C 86 % 1015,8 hPa 0,0 l/m N 0,00 h 0 W/m 4,5 km/h (1 Bft)
02.06.2014 05:00 10,5 C 84 % 1015,9 hPa 0,0 l/m N 0,00 h 8 W/m 5,1 km/h (1 Bft)
02.06.2014 06:00 10,4 C 86 % 1015,7 hPa 0,0 l/m N 0,00 h 34 W/m 1,6 km/h (1 Bft)
02.06.2014 07:00 11,3 C 84 % 1015,9 hPa 0,0 l/m N 0,00 h 102 W/m 5,3 km/h (1 Bft)
02.06.2014 08:00 12,9 C 77 % 1015,8 hPa 0,0 l/m N 0,08 h 199 W/m 5,5 km/h (1 Bft)
02.06.2014 09:00 14,7 C 68 % 1015,5 hPa 0,0 l/m N-NO 0,58 h 404 W/m 7,0 km/h (2 Bft)
02.06.2014 10:00 16,7 C 58 % 1015,3 hPa 0,0 l/m O 0,67 h 607 W/m 11,8 km/h (2 Bft)
02.06.2014 11:00 18,3 C 53 % 1015,0 hPa 0,0 l/m O 0,83 h 715 W/m 15,6 km/h (3 Bft)
02.06.2014 12:00 18,7 C 56 % 1014,5 hPa 0,0 l/m O-NO 0,42 h 484 W/m 15,7 km/h (3 Bft)
02.06.2014 13:00 16,9 C 60 % 1014,5 hPa 1,0 l/m O-NO 0,00 h 60 W/m 16,1 km/h (3 Bft)
02.06.2014 14:00 11,1 C 90 % 1015,6 hPa 7,0 l/m W-NW 0,00 h 35 W/m 21,1 km/h (4 Bft)
02.06.2014 15:00 11,7 C 92 % 1015,4 hPa 1,8 l/m NO 0,00 h 153 W/m 8,6 km/h (2 Bft)
02.06.2014 16:00 13,4 C 87 % 1014,8 hPa 0,0 l/m O-NO 0,00 h 188 W/m 8,9 km/h (2 Bft)
02.06.2014 17:00 14,4 C 81 % 1014,7 hPa 0,0 l/m O-NO 0,17 h 249 W/m 4,8 km/h (1 Bft)
02.06.2014 18:00 15,8 C 74 % 1014,7 hPa 0,0 l/m O 0,58 h 294 W/m 7,9 km/h (2 Bft)
02.06.2014 19:00 15,1 C 76 % 1014,5 hPa 0,0 l/m O 0,75 h 179 W/m 5,3 km/h (1 Bft)
02.06.2014 20:00 13,5 C 89 % 1014,7 hPa 0,0 l/m O 0,08 h 25 W/m 1,3 km/h (1 Bft)
02.06.2014 21:00 11,8 C 94 % 1015,2 hPa 0,0 l/m N 0,00 h 5 W/m 0,9 km/h (0 Bft)
02.06.2014 22:00 11,4 C 96 % 1015,2 hPa 0,0 l/m N 0,00 h 0 W/m 0,3 km/h (0 Bft)
02.06.2014 23:00 11,2 C 97 % 1015,2 hPa 0,0 l/m N 0,00 h 0 W/m 0,3 km/h (0 Bft)
03.06.2014 00:00 10,7 C 97 % 1015,1 hPa 0,0 l/m N 0,00 h 0 W/m 0,5 km/h (0 Bft)
03.06.2014 01:00 9,7 C 97 % 1014,9 hPa 0,0 l/m N 0,00 h 0 W/m 0,0 km/h (0 Bft)
03.06.2014 02:00 9,4 C 98 % 1014,9 hPa 0,0 l/m N 0,00 h 0 W/m 0,0 km/h (0 Bft)
03.06.2014 03:00 9,4 C 98 % 1014,6 hPa 0,0 l/m N 0,00 h 0 W/m 0,4 km/h (0 Bft)
03.06.2014 04:00 8,9 C 99 % 1014,3 hPa 0,0 l/m N 0,00 h 0 W/m 0,7 km/h (0 Bft)
03.06.2014 05:00 8,3 C 99 % 1014,3 hPa 0,0 l/m N 0,00 h 9 W/m 0,3 km/h (0 Bft)
03.06.2014 06:00 8,4 C 99 % 1014,3 hPa 0,0 l/m N 0,00 h 39 W/m 0,0 km/h (0 Bft)
03.06.2014 07:00 9,4 C 99 % 1014,5 hPa 0,0 l/m O 0,00 h 80 W/m 1,6 km/h (1 Bft)
03.06.2014 08:00 11,1 C 98 % 1014,5 hPa 0,0 l/m O 0,25 h 209 W/m 3,9 km/h (1 Bft)
03.06.2014 09:00 13,9 C 89 % 1014,2 hPa 0,0 l/m O-SO 0,75 h 456 W/m 5,5 km/h (1 Bft)
03.06.2014 10:00 16,6 C 73 % 1013,9 hPa 0,0 l/m S-SW 1,00 h 652 W/m 7,9 km/h (2 Bft)
03.06.2014 11:00 17,8 C 63 % 1013,5 hPa 0,0 l/m SW 0,67 h 651 W/m 8,7 km/h (2 Bft)
03.06.2014 12:00 17,4 C 63 % 1013,2 hPa 0,0 l/m W-SW 0,08 h 218 W/m 7,3 km/h (2 Bft)
03.06.2014 13:00 18,8 C 58 % 1012,9 hPa 0,0 l/m W 0,67 h 760 W/m 7,6 km/h (2 Bft)
03.06.2014 14:00 19,4 C 52 % 1012,4 hPa 0,0 l/m W 0,25 h 488 W/m 6,0 km/h (2 Bft)
03.06.2014 15:00 18,9 C 53 % 1012,2 hPa 0,0 l/m NW 0,00 h 218 W/m 8,2 km/h (2 Bft)
03.06.2014 16:00 16,6 C 65 % 1012,2 hPa 0,0 l/m N 0,00 h 122 W/m 18,9 km/h (3 Bft)
03.06.2014 17:00 16,0 C 70 % 1011,6 hPa 0,0 l/m NO 0,00 h 165 W/m 7,5 km/h (2 Bft)
03.06.2014 18:00 16,8 C 62 % 1011,8 hPa 0,0 l/m O 0,00 h 164 W/m 7,6 km/h (2 Bft)
03.06.2014 19:00 16,6 C 67 % 1011,9 hPa 0,0 l/m O-NO 0,33 h 150 W/m 7,0 km/h (2 Bft)
03.06.2014 20:00 15,8 C 68 % 1012,0 hPa 0,0 l/m O-NO 0,08 h 36 W/m 5,9 km/h (2 Bft)
03.06.2014 21:00 13,3 C 80 % 1011,9 hPa 0,0 l/m N 0,00 h 6 W/m 1,3 km/h (1 Bft)
03.06.2014 22:00 11,2 C 89 % 1012,1 hPa 0,0 l/m O 0,00 h 0 W/m 1,5 km/h (1 Bft)
03.06.2014 23:00 10,2 C 91 % 1011,8 hPa 0,0 l/m N 0,00 h 0 W/m 0,9 km/h (0 Bft)
04.06.2014 00:00 9,4 C 93 % 1011,4 hPa 0,0 l/m N 0,00 h 0 W/m 0,0 km/h (0 Bft)
04.06.2014 01:00 8,7 C 95 % 1011,0 hPa 0,0 l/m N 0,00 h 0 W/m 0,0 km/h (0 Bft)
04.06.2014 02:00 8,2 C 96 % 1010,6 hPa 0,0 l/m N 0,00 h 0 W/m 0,0 km/h (0 Bft)
04.06.2014 03:00 7,8 C 97 % 1010,1 hPa 0,0 l/m N 0,00 h 0 W/m 0,0 km/h (0 Bft)
04.06.2014 04:00 7,2 C 97 % 1009,5 hPa 0,0 l/m N 0,00 h 0 W/m 0,0 km/h (0 Bft)
04.06.2014 05:00 6,7 C 97 % 1009,5 hPa 0,0 l/m N 0,00 h 10 W/m 0,0 km/h (0 Bft)
04.06.2014 06:00 7,5 C 98 % 1009,4 hPa 0,0 l/m N 0,00 h 52 W/m 0,0 km/h (0 Bft)
04.06.2014 07:00 10,2 C 94 % 1008,9 hPa 0,0 l/m O 0,83 h 205 W/m 0,5 km/h (0 Bft)
04.06.2014 08:00 13,0 C 86 % 1008,4 hPa 0,0 l/m O 1,00 h 340 W/m 4,4 km/h (1 Bft)
04.06.2014 09:00 15,4 C 77 % 1008,0 hPa 0,0 l/m O 1,00 h 493 W/m 5,6 km/h (1 Bft)
04.06.2014 10:00 17,0 C 71 % 1007,6 hPa 0,0 l/m O-SO 1,00 h 643 W/m 8,3 km/h (2 Bft)
04.06.2014 11:00 18,3 C 64 % 1007,3 hPa 0,0 l/m W-SW 0,58 h 536 W/m 8,2 km/h (2 Bft)
04.06.2014 12:00 19,3 C 54 % 1007,0 hPa 0,0 l/m S-SW 0,58 h 504 W/m 9,7 km/h (2 Bft)
04.06.2014 13:00 19,6 C 56 % 1006,7 hPa 0,0 l/m W-SW 0,17 h 326 W/m 9,5 km/h (2 Bft)
04.06.2014 14:00 20,2 C 53 % 1006,1 hPa 0,0 l/m SW 0,17 h 381 W/m 9,5 km/h (2 Bft)
04.06.2014 15:00 19,1 C 57 % 1006,3 hPa 0,0 l/m SW 0,00 h 125 W/m 13,4 km/h (3 Bft)
04.06.2014 16:00 18,0 C 62 % 1006,8 hPa 0,0 l/m W 0,00 h 126 W/m 15,7 km/h (3 Bft)
04.06.2014 17:00 16,4 C 67 % 1007,5 hPa 0,0 l/m W 0,00 h 41 W/m 22,2 km/h (4 Bft)
04.06.2014 18:00 13,9 C 82 % 1008,0 hPa 0,8 l/m W 0,00 h 31 W/m 20,2 km/h (4 Bft)
04.06.2014 19:00 12,4 C 93 % 1008,5 hPa 1,6 l/m W-SW 0,00 h 22 W/m 11,0 km/h (2 Bft)
04.06.2014 20:00 12,4 C 96 % 1008,6 hPa 0,2 l/m SW 0,00 h 36 W/m 12,2 km/h (2 Bft)
04.06.2014 21:00 12,1 C 97 % 1008,9 hPa 0,0 l/m SW 0,00 h 0 W/m 10,9 km/h (2 Bft)
04.06.2014 22:00 11,9 C 98 % 1009,4 hPa 0,0 l/m SW 0,00 h 0 W/m 12,9 km/h (3 Bft)
04.06.2014 23:00 11,7 C 98 % 1009,7 hPa 0,0 l/m S-SW 0,00 h 0 W/m 8,0 km/h (2 Bft)
05.06.2014 00:00 11,1 C 98 % 1010,5 hPa 0,0 l/m SW 0,00 h 0 W/m 9,0 km/h (2 Bft)
05.06.2014 01:00 10,7 C 96 % 1011,1 hPa 0,0 l/m SW 0,00 h 0 W/m 12,2 km/h (2 Bft)
05.06.2014 02:00 10,4 C 96 % 1011,8 hPa 0,0 l/m W-SW 0,00 h 0 W/m 11,6 km/h (2 Bft)
05.06.2014 03:00 10,1 C 94 % 1012,1 hPa 0,0 l/m W-SW 0,00 h 0 W/m 12,1 km/h (2 Bft)
05.06.2014 04:00 9,4 C 95 % 1012,5 hPa 0,0 l/m W-SW 0,00 h 0 W/m 7,9 km/h (2 Bft)
05.06.2014 05:00 9,6 C 95 % 1012,7 hPa 0,0 l/m SW 0,00 h 11 W/m 8,2 km/h (2 Bft)
05.06.2014 06:00 9,7 C 96 % 1013,0 hPa 0,0 l/m SW 0,17 h 62 W/m 9,0 km/h (2 Bft)
05.06.2014 07:00 10,5 C 94 % 1013,4 hPa 0,0 l/m W-SW 0,00 h 62 W/m 12,9 km/h (3 Bft)
05.06.2014 08:00 11,5 C 90 % 1013,7 hPa 0,0 l/m SW 0,75 h 358 W/m 14,8 km/h (3 Bft)
05.06.2014 09:00 13,0 C 80 % 1013,8 hPa 0,0 l/m SW 0,58 h 409 W/m 12,2 km/h (2 Bft)
05.06.2014 10:00 14,6 C 70 % 1013,6 hPa 0,0 l/m W-SW 1,00 h 661 W/m 16,4 km/h (3 Bft)
05.06.2014 11:00 15,2 C 65 % 1013,6 hPa 0,0 l/m W-NW 0,58 h 600 W/m 11,1 km/h (2 Bft)
05.06.2014 12:00 15,8 C 61 % 1013,9 hPa 0,0 l/m W-NW 0,25 h 383 W/m 11,1 km/h (2 Bft)
05.06.2014 13:00 16,7 C 58 % 1013,7 hPa 0,0 l/m W-NW 0,42 h 545 W/m 12,1 km/h (2 Bft)
05.06.2014 14:00 18,1 C 54 % 1013,5 hPa 0,0 l/m SW 1,00 h 858 W/m 16,0 km/h (3 Bft)
05.06.2014 15:00 19,1 C 49 % 1013,4 hPa 0,0 l/m SW 1,00 h 845 W/m 16,5 km/h (3 Bft)
05.06.2014 16:00 19,7 C 44 % 1013,0 hPa 0,0 l/m SW 1,00 h 679 W/m 14,4 km/h (3 Bft)
05.06.2014 17:00 19,9 C 44 % 1013,1 hPa 0,0 l/m SW 1,00 h 550 W/m 11,0 km/h (2 Bft)
05.06.2014 18:00 19,9 C 44 % 1013,0 hPa 0,0 l/m SW 1,00 h 407 W/m 11,7 km/h (2 Bft)
05.06.2014 19:00 18,8 C 46 % 1013,1 hPa 0,0 l/m W-SW 1,00 h 230 W/m 7,6 km/h (2 Bft)
05.06.2014 20:00 16,6 C 54 % 1013,6 hPa 0,0 l/m W-SW 0,17 h 34 W/m 6,1 km/h (2 Bft)
05.06.2014 21:00 13,4 C 70 % 1014,2 hPa 0,0 l/m N 0,00 h 7 W/m 1,1 km/h (0 Bft)
05.06.2014 22:00 11,8 C 78 % 1014,9 hPa 0,0 l/m N 0,00 h 0 W/m 0,0 km/h (0 Bft)
05.06.2014 23:00 10,8 C 83 % 1015,2 hPa 0,0 l/m N 0,00 h 0 W/m 1,1 km/h (0 Bft)
06.06.2014 00:00 9,7 C 86 % 1015,3 hPa 0,0 l/m N 0,00 h 0 W/m 0,0 km/h (0 Bft)
06.06.2014 01:00 8,8 C 90 % 1015,3 hPa 0,0 l/m N 0,00 h 0 W/m 0,0 km/h (0 Bft)
06.06.2014 02:00 8,0 C 92 % 1015,5 hPa 0,0 l/m N 0,00 h 0 W/m 0,1 km/h (0 Bft)
06.06.2014 03:00 7,5 C 93 % 1015,6 hPa 0,0 l/m N 0,00 h 0 W/m 0,0 km/h (0 Bft)
06.06.2014 04:00 6,9 C 94 % 1015,8 hPa 0,0 l/m N 0,00 h 0 W/m 0,0 km/h (0 Bft)
06.06.2014 05:00 6,6 C 94 % 1016,0 hPa 0,0 l/m N 0,00 h 10 W/m 0,0 km/h (0 Bft)
06.06.2014 06:00 7,5 C 94 % 1016,1 hPa 0,0 l/m N 0,08 h 70 W/m 0,3 km/h (0 Bft)
06.06.2014 07:00 10,5 C 86 % 1016,1 hPa 0,0 l/m N 1,00 h 217 W/m 0,0 km/h (0 Bft)
06.06.2014 08:00 13,9 C 76 % 1016,1 hPa 0,0 l/m N 1,00 h 388 W/m 2,3 km/h (1 Bft)
06.06.2014 09:00 17,1 C 65 % 1015,8 hPa 0,0 l/m W-SW 1,00 h 554 W/m 3,7 km/h (1 Bft)
06.06.2014 10:00 19,2 C 62 % 1015,6 hPa 0,0 l/m W-SW 1,00 h 694 W/m 7,9 km/h (2 Bft)
06.06.2014 11:00 21,7 C 52 % 1015,3 hPa 0,0 l/m SW 1,00 h 804 W/m 8,0 km/h (2 Bft)
06.06.2014 12:00 23,4 C 41 % 1015,0 hPa 0,0 l/m SW 1,00 h 881 W/m 11,6 km/h (2 Bft)
06.06.2014 13:00 24,3 C 40 % 1014,6 hPa 0,0 l/m SW 1,00 h 870 W/m 14,0 km/h (3 Bft)
06.06.2014 14:00 25,3 C 39 % 1014,1 hPa 0,0 l/m W-NW 1,00 h 849 W/m 13,2 km/h (3 Bft)
06.06.2014 15:00 25,5 C 37 % 1013,8 hPa 0,0 l/m SW 0,83 h 591 W/m 9,8 km/h (2 Bft)
06.06.2014 16:00 26,2 C 36 % 1013,5 hPa 0,0 l/m SW 1,00 h 708 W/m 8,7 km/h (2 Bft)
06.06.2014 17:00 26,5 C 34 % 1013,3 hPa 0,0 l/m SW 1,00 h 503 W/m 14,4 km/h (3 Bft)
06.06.2014 18:00 25,9 C 36 % 1013,2 hPa 0,0 l/m W-SW 1,00 h 385 W/m 10,5 km/h (2 Bft)
06.06.2014 19:00 24,9 C 40 % 1013,2 hPa 0,0 l/m W-SW 0,58 h 171 W/m 3,1 km/h (1 Bft)
06.06.2014 20:00 20,7 C 60 % 1013,0 hPa 0,0 l/m N 0,08 h 22 W/m 0,5 km/h (0 Bft)
06.06.2014 21:00 18,3 C 66 % 1013,4 hPa 0,0 l/m N 0,08 h 11 W/m 0,0 km/h (0 Bft)
06.06.2014 22:00 16,2 C 74 % 1013,9 hPa 0,0 l/m N 0,00 h 0 W/m 0,0 km/h (0 Bft)
06.06.2014 23:00 14,8 C 79 % 1014,1 hPa 0,0 l/m N 0,00 h 0 W/m 0,3 km/h (0 Bft)
07.06.2014 00:00 14,0 C 82 % 1014,1 hPa 0,0 l/m N 0,00 h 0 W/m 0,5 km/h (0 Bft)
07.06.2014 01:00 13,1 C 85 % 1014,1 hPa 0,0 l/m N 0,00 h 0 W/m 0,4 km/h (0 Bft)
07.06.2014 02:00 12,5 C 85 % 1014,3 hPa 0,0 l/m N 0,00 h 0 W/m 0,0 km/h (0 Bft)
07.06.2014 03:00 11,9 C 88 % 1014,3 hPa 0,0 l/m N 0,00 h 0 W/m 0,0 km/h (0 Bft)
07.06.2014 04:00 10,9 C 91 % 1014,3 hPa 0,0 l/m N 0,00 h 0 W/m 0,0 km/h (0 Bft)
07.06.2014 05:00 10,6 C 92 % 1014,6 hPa 0,0 l/m N 0,00 h 10 W/m 0,0 km/h (0 Bft)
07.06.2014 06:00 11,3 C 91 % 1014,9 hPa 0,0 l/m N 0,00 h 63 W/m 0,0 km/h (0 Bft)
07.06.2014 07:00 14,1 C 82 % 1015,0 hPa 0,0 l/m N 0,92 h 208 W/m 0,0 km/h (0 Bft)
07.06.2014 08:00 17,6 C 76 % 1015,1 hPa 0,0 l/m W-SW 1,00 h 372 W/m 6,6 km/h (2 Bft)
07.06.2014 09:00 20,6 C 65 % 1015,2 hPa 0,0 l/m S-SW 1,00 h 525 W/m 11,3 km/h (2 Bft)
07.06.2014 10:00 22,8 C 57 % 1015,0 hPa 0,0 l/m S-SW 0,92 h 633 W/m 9,8 km/h (2 Bft)
07.06.2014 11:00 25,0 C 52 % 1014,7 hPa 0,0 l/m S 1,00 h 792 W/m 10,5 km/h (2 Bft)
07.06.2014 12:00 26,6 C 44 % 1014,5 hPa 0,0 l/m SW 1,00 h 868 W/m 9,5 km/h (2 Bft)
07.06.2014 13:00 27,5 C 41 % 1014,2 hPa 0,0 l/m S-SW 1,00 h 898 W/m 11,5 km/h (2 Bft)
07.06.2014 14:00 28,4 C 36 % 1014,0 hPa 0,0 l/m SW 1,00 h 874 W/m 12,3 km/h (3 Bft)
07.06.2014 15:00 29,3 C 33 % 1013,6 hPa 0,0 l/m W-SW 1,00 h 803 W/m 11,8 km/h (2 Bft)
07.06.2014 16:00 29,8 C 32 % 1013,6 hPa 0,0 l/m W-SW 1,00 h 678 W/m 10,2 km/h (2 Bft)
07.06.2014 17:00 29,6 C 30 % 1013,5 hPa 0,0 l/m W-SW 1,00 h 520 W/m 9,3 km/h (2 Bft)
07.06.2014 18:00 28,0 C 35 % 1013,8 hPa 0,0 l/m W-SW 0,25 h 196 W/m 4,5 km/h (1 Bft)
07.06.2014 19:00 25,3 C 48 % 1014,0 hPa 0,0 l/m W-SW 0,08 h 97 W/m 4,0 km/h (1 Bft)
07.06.2014 20:00 23,0 C 56 % 1014,3 hPa 0,0 l/m W-SW 0,00 h 32 W/m 3,7 km/h (1 Bft)
07.06.2014 21:00 20,6 C 65 % 1014,8 hPa 0,0 l/m N 0,17 h 9 W/m 0,8 km/h (0 Bft)
07.06.2014 22:00 18,7 C 70 % 1015,2 hPa 0,0 l/m N 0,00 h 0 W/m 0,3 km/h (0 Bft)
07.06.2014 23:00 17,3 C 76 % 1015,3 hPa 0,0 l/m N 0,00 h 0 W/m 0,0 km/h (0 Bft)
08.06.2014 00:00 16,1 C 79 % 1015,4 hPa 0,0 l/m W-SW 0,00 h 0 W/m 0,3 km/h (0 Bft)
08.06.2014 01:00 15,1 C 83 % 1015,5 hPa 0,0 l/m N 0,00 h 0 W/m 0,0 km/h (0 Bft)
08.06.2014 02:00 14,3 C 85 % 1015,7 hPa 0,0 l/m N 0,00 h 0 W/m 0,0 km/h (0 Bft)
08.06.2014 03:00 13,5 C 89 % 1015,8 hPa 0,0 l/m N 0,00 h 0 W/m 0,0 km/h (0 Bft)
08.06.2014 04:00 13,1 C 90 % 1015,6 hPa 0,0 l/m N 0,00 h 0 W/m 0,0 km/h (0 Bft)
08.06.2014 05:00 12,8 C 90 % 1015,7 hPa 0,0 l/m N 0,00 h 10 W/m 0,0 km/h (0 Bft)
08.06.2014 06:00 13,2 C 90 % 1016,1 hPa 0,0 l/m N 0,00 h 62 W/m 0,0 km/h (0 Bft)
08.06.2014 07:00 16,8 C 80 % 1016,3 hPa 0,0 l/m N 0,83 h 204 W/m 0,0 km/h (0 Bft)
08.06.2014 08:00 20,7 C 64 % 1016,5 hPa 0,0 l/m N 1,00 h 363 W/m 0,9 km/h (0 Bft)
08.06.2014 09:00 23,4 C 55 % 1016,6 hPa 0,0 l/m W-SW 1,00 h 526 W/m 3,6 km/h (1 Bft)
08.06.2014 10:00 26,4 C 50 % 1016,4 hPa 0,0 l/m W-SW 1,00 h 644 W/m 6,1 km/h (2 Bft)
08.06.2014 11:00 28,2 C 44 % 1016,4 hPa 0,0 l/m W-SW 1,00 h 777 W/m 5,1 km/h (1 Bft)
08.06.2014 12:00 30,1 C 37 % 1016,3 hPa 0,0 l/m O-SO 1,00 h 844 W/m 10,6 km/h (2 Bft)
08.06.2014 13:00 31,3 C 32 % 1016,0 hPa 0,0 l/m O-SO 1,00 h 872 W/m 9,5 km/h (2 Bft)
08.06.2014 14:00 32,0 C 30 % 1015,5 hPa 0,0 l/m S-SO 1,00 h 850 W/m 9,1 km/h (2 Bft)
08.06.2014 15:00 33,1 C 28 % 1015,3 hPa 0,0 l/m O-SO 1,00 h 783 W/m 9,7 km/h (2 Bft)
08.06.2014 16:00 33,0 C 26 % 1015,1 hPa 0,0 l/m W-SW 1,00 h 679 W/m 10,5 km/h (2 Bft)
08.06.2014 17:00 33,0 C 26 % 1015,0 hPa 0,0 l/m W-SW 1,00 h 536 W/m 5,5 km/h (1 Bft)
08.06.2014 18:00 32,1 C 30 % 1014,8 hPa 0,0 l/m W-SW 1,00 h 372 W/m 3,1 km/h (1 Bft)
08.06.2014 19:00 29,3 C 45 % 1014,6 hPa 0,0 l/m N 1,00 h 198 W/m 1,1 km/h (0 Bft)
08.06.2014 20:00 25,6 C 55 % 1014,5 hPa 0,0 l/m N 0,17 h 41 W/m 1,2 km/h (1 Bft)
08.06.2014 21:00 22,7 C 57 % 1014,7 hPa 0,0 l/m N 0,08 h 8 W/m 1,5 km/h (1 Bft)
08.06.2014 22:00 20,9 C 64 % 1015,0 hPa 0,0 l/m N 0,00 h 0 W/m 0,0 km/h (0 Bft)
08.06.2014 23:00 20,3 C 66 % 1015,1 hPa 0,0 l/m W-SW 0,00 h 0 W/m 4,3 km/h (1 Bft)
Min-Datum _ 06.06.14 08.06.14 04.06.14 - - - - 02.06.14
_ Min-Zeit 05:50 16:30 14:35 - - - - 00:10
Minimum _ 6,4 C 22 % 1006,0 hPa - - - - 0,0 km/h (0 Bft)
Max-Datum _ 08.06.14 03.06.14 08.06.14 02.06.14 - 02.06.14 03.06.14 02.06.14
_ Max-Zeit 15:45 04:10 09:15 14:20 - 08:15 14:10 13:55
Maximum _ 33,6 C 99 % 1016,7 hPa 7,0 l/m - 0,08 h 1079 W/m 40,2 km/h
O-NO (6 Bft)
Durchschnitt _ 16,4 C 72 % 1013,6 hPa #12,4 l/m W-SW #60:35 h 354 W/m 5,9 km/h (2 Bft)